Fredonia, Indiana
Current Conditions -  °F | °C
As of 7:15 AM on Saturday 20 Dec 2014 (Local Time) from KFTK Reporting Station
Overcast Overcast  
Wind Chill: 28°   Ceiling: 7500
Heat Index: 28°   Visibility: 10mi
Dew Point: 23°   Wind: 3mph
Humidity: 80%   Direction: 320°NW
Pressure: 30.27"   Gusts: NA
Location:  38.1914°N, 86.3619°W
Report Text: KFTK 201215Z AUTO 32003KT 10SM BKN075 OVC090 M02/M05 A3027 RMK AO2 PRESRR
Loading
Personal Weather Stations






























Interactive Weather Map New forecast layout! Learn more

10-Day Weather Forecast

Advertisements
Track Severe Weather on mobile